createdAt,value
2023-01-11T09:30:39.165Z,7.85
2023-01-11T09:32:44.116Z,3.92
2023-01-11T09:34:49.779Z,6.30
2023-01-11T09:36:52.947Z,4.00
2023-01-11T09:39:01.768Z,6.10
2023-01-11T09:41:13.023Z,10.30
2023-01-11T09:43:17.564Z,6.07
2023-01-11T09:45:23.370Z,5.70
2023-01-11T09:47:36.667Z,4.63
2023-01-11T09:49:44.789Z,8.95
2023-01-11T09:51:49.951Z,6.00
2023-01-11T09:53:54.536Z,7.75
2023-01-11T09:56:02.967Z,7.68
2023-01-11T09:58:21.734Z,6.18
2023-01-11T10:00:33.457Z,21.50
2023-01-11T10:02:53.860Z,5.32
2023-01-11T10:05:28.680Z,7.97
2023-01-11T10:18:22.844Z,9.15
2023-01-11T10:18:49.425Z,10.02
2023-01-11T10:20:56.328Z,21.42
2023-01-11T10:23:06.417Z,6.25
2023-01-11T10:25:18.857Z,5.90
2023-01-11T10:27:27.698Z,7.50
2023-01-11T10:29:59.557Z,6.90
2023-01-11T10:32:33.936Z,7.13
2023-01-11T10:34:59.696Z,8.40
2023-01-11T10:37:23.874Z,13.82
2023-01-11T10:39:51.993Z,5.25
2023-01-11T10:42:07.720Z,11.23
2023-01-11T10:44:19.347Z,32.28
2023-01-11T10:46:25.905Z,24.13
2023-01-11T10:48:33.538Z,32.42
2023-01-11T10:50:46.834Z,9.75
2023-01-11T10:52:56.275Z,12.07
2023-01-11T10:55:02.898Z,5.90
2023-01-11T10:57:18.052Z,7.40
2023-01-11T10:59:41.222Z,10.25
2023-01-11T11:01:54.498Z,15.98
2023-01-11T11:04:10.685Z,9.82
2023-01-11T11:06:25.510Z,6.80
2023-01-11T11:08:32.210Z,8.18
2023-01-11T11:10:46.378Z,12.32
2023-01-11T11:12:59.615Z,13.23
2023-01-11T11:15:11.271Z,9.57
2023-01-11T11:19:26.315Z,11.10
2023-01-11T11:21:36.755Z,9.85
2023-01-11T11:23:40.744Z,12.50
2023-01-11T11:25:49.652Z,11.63
2023-01-11T11:27:56.733Z,14.68
2023-01-11T11:30:00.006Z,10.27
2023-01-11T11:32:03.518Z,8.32
2023-01-11T11:34:08.863Z,7.75
2023-01-11T11:36:14.182Z,12.07
2023-01-11T11:38:24.334Z,9.82
2023-01-11T11:40:33.145Z,10.23
2023-01-11T11:42:36.232Z,6.20
2023-01-11T11:44:39.741Z,10.45
2023-01-11T11:46:56.788Z,10.32
2023-01-11T11:49:13.233Z,13.10
2023-01-11T11:51:22.054Z,6.03
2023-01-11T11:53:33.535Z,9.38
2023-01-11T11:57:42.989Z,11.30
2023-01-11T11:59:49.254Z,11.20
2023-01-11T12:02:00.108Z,8.82
2023-01-11T12:04:05.878Z,13.60
2023-01-11T12:06:09.124Z,11.98
2023-01-11T12:08:16.064Z,8.43
2023-01-11T12:10:23.713Z,8.52
2023-01-11T12:12:29.544Z,8.70
2023-01-11T12:14:35.184Z,11.07
2023-01-11T12:16:41.331Z,17.38
2023-01-11T12:18:44.692Z,11.25
2023-01-11T12:20:48.869Z,8.60
2023-01-11T12:23:18.114Z,13.82
2023-01-11T12:25:25.228Z,11.60
2023-01-11T12:27:39.718Z,13.48
2023-01-11T12:29:54.050Z,10.80
2023-01-11T12:32:11.079Z,9.63
2023-01-11T12:34:31.943Z,11.60
2023-01-11T12:36:44.689Z,12.18
2023-01-11T12:39:02.890Z,10.55
2023-01-11T12:41:41.978Z,13.52
2023-01-11T12:44:05.257Z,14.13
2023-01-11T12:46:21.338Z,12.57
2023-01-11T12:48:39.628Z,13.45
2023-01-11T12:50:59.277Z,12.45
2023-01-11T12:53:17.212Z,16.13
2023-01-11T12:55:34.180Z,11.88
2023-01-11T12:57:51.192Z,11.15
2023-01-11T13:00:21.594Z,11.98
2023-01-11T13:02:43.484Z,10.25
2023-01-11T13:04:53.691Z,12.38
2023-01-11T13:07:04.699Z,14.52
2023-01-11T13:09:17.697Z,14.35
2023-01-11T13:11:36.550Z,14.32
2023-01-11T13:13:53.085Z,16.70
2023-01-11T13:16:02.635Z,13.38
2023-01-11T13:18:18.847Z,12.82
2023-01-11T13:20:34.103Z,11.82
2023-01-11T13:22:41.521Z,16.27
2023-01-11T13:24:48.912Z,16.35
2023-01-11T13:26:54.046Z,16.95
2023-01-11T13:29:03.387Z,18.10
2023-01-11T13:31:10.587Z,12.68
2023-01-11T13:33:19.640Z,9.10
2023-01-11T13:35:33.097Z,10.90
2023-01-11T13:37:44.145Z,12.65
2023-01-11T13:39:54.326Z,17.38
2023-01-11T13:42:03.293Z,11.75
2023-01-11T13:44:14.269Z,9.52
2023-01-11T13:46:23.471Z,12.50
2023-01-11T13:48:29.736Z,14.20
2023-01-11T13:50:38.598Z,12.85
2023-01-11T13:52:51.249Z,17.00
2023-01-11T13:54:59.664Z,11.38
2023-01-11T13:57:07.830Z,12.95
2023-01-11T13:59:17.763Z,16.00
2023-01-11T14:01:25.205Z,15.15
2023-01-11T14:03:32.248Z,12.48
2023-01-11T14:05:44.971Z,16.88
2023-01-11T14:08:12.770Z,17.50
2023-01-11T14:10:32.214Z,16.70
2023-01-11T14:12:51.580Z,12.82
2023-01-11T14:15:08.485Z,18.42
2023-01-11T14:17:32.896Z,18.10
2023-01-11T14:19:44.528Z,21.23
2023-01-11T14:24:03.592Z,11.30
2023-01-11T14:26:50.819Z,11.38
2023-01-11T14:29:10.095Z,17.70
2023-01-11T14:31:40.221Z,13.30
2023-01-11T14:34:04.745Z,17.17
2023-01-11T14:36:35.260Z,17.50
2023-01-11T14:39:01.688Z,16.77
2023-01-11T14:41:26.311Z,14.25
2023-01-11T14:43:48.414Z,12.00
2023-01-11T14:46:11.082Z,16.33
2023-01-11T14:48:25.616Z,19.38
2023-01-11T14:50:42.713Z,18.45
2023-01-11T14:52:47.248Z,13.68
2023-01-11T14:54:54.028Z,16.60
2023-01-11T14:56:58.244Z,11.50
2023-01-11T14:59:06.234Z,16.05
2023-01-11T15:01:11.917Z,15.48
2023-01-11T15:03:39.623Z,20.80
2023-01-11T15:05:47.756Z,13.32
2023-01-11T15:07:51.808Z,14.25
2023-01-11T15:09:55.191Z,17.83
2023-01-11T15:12:12.720Z,12.27
2023-01-11T15:14:28.190Z,20.73
2023-01-11T15:16:50.843Z,11.82
2023-01-11T15:18:56.026Z,21.25
2023-01-11T15:21:05.246Z,15.48
2023-01-11T15:23:08.307Z,20.90
2023-01-11T15:25:22.682Z,16.77
2023-01-11T15:27:27.558Z,15.48
2023-01-11T15:29:32.879Z,16.30
2023-01-11T15:31:39.991Z,15.18
2023-01-11T15:33:47.977Z,13.60
2023-01-11T15:36:04.146Z,12.98
2023-01-11T15:38:16.577Z,19.55
2023-01-11T15:40:21.731Z,15.98
2023-01-11T15:42:49.618Z,19.15
2023-01-11T15:45:17.336Z,22.55
2023-01-11T15:47:36.892Z,21.30
2023-01-11T15:50:07.091Z,17.95
2023-01-11T15:52:37.383Z,12.32
2023-01-11T15:55:09.374Z,11.95
2023-01-11T15:57:50.387Z,20.33
2023-01-11T16:00:29.968Z,14.57
2023-01-11T16:03:09.850Z,20.77
2023-01-11T16:05:19.500Z,14.05
2023-01-11T16:07:34.774Z,17.40
2023-01-11T16:10:14.793Z,16.95
2023-01-11T16:12:46.588Z,19.13
2023-01-11T16:17:13.922Z,14.98
2023-01-11T16:19:20.443Z,18.20
2023-01-11T16:21:32.635Z,22.08
2023-01-11T16:23:37.163Z,16.85
2023-01-11T16:25:42.873Z,19.48
2023-01-11T16:27:53.602Z,15.48
2023-01-11T16:29:57.229Z,14.63
2023-01-11T16:32:02.444Z,16.75
2023-01-11T16:34:08.121Z,24.02
2023-01-11T16:36:14.316Z,22.63
2023-01-11T16:38:20.360Z,16.33
2023-01-11T16:40:29.897Z,17.67
2023-01-11T16:42:36.909Z,16.08
2023-01-11T16:44:46.049Z,19.05
2023-01-11T16:47:17.057Z,16.52
2023-01-11T16:49:20.928Z,19.05
2023-01-11T16:51:24.011Z,19.00
2023-01-11T16:53:29.328Z,13.10
2023-01-11T16:55:37.821Z,21.50
2023-01-11T16:57:45.198Z,14.82
2023-01-11T17:00:01.735Z,18.33
2023-01-11T17:02:27.620Z,17.08
2023-01-11T17:04:32.869Z,18.58
2023-01-11T17:06:36.228Z,18.63
2023-01-11T17:08:40.918Z,17.83
2023-01-11T17:10:45.439Z,15.45
2023-01-11T17:13:06.336Z,15.07
2023-01-11T17:15:23.120Z,20.27
2023-01-11T17:17:27.316Z,24.98
2023-01-11T17:19:32.821Z,19.60
2023-01-11T17:21:36.415Z,20.63
2023-01-11T17:23:47.089Z,17.67
2023-01-11T17:25:56.678Z,28.10
2023-01-11T17:28:03.793Z,29.63
2023-01-11T17:30:16.752Z,23.52
2023-01-11T17:32:25.377Z,23.30
2023-01-11T17:34:32.254Z,17.02
2023-01-11T17:36:37.109Z,22.67
2023-01-11T17:38:43.317Z,16.33
2023-01-11T17:40:46.898Z,17.00
2023-01-11T17:43:10.075Z,25.80
2023-01-11T17:45:21.227Z,25.73
2023-01-11T17:47:25.018Z,19.27
2023-01-11T17:49:28.275Z,24.13
2023-01-11T17:51:34.627Z,24.30
2023-01-11T17:53:40.029Z,25.63
2023-01-11T17:55:51.216Z,19.40
2023-01-11T17:58:19.719Z,16.42
2023-01-11T18:00:27.076Z,20.23
2023-01-11T18:02:30.753Z,18.55
2023-01-11T18:04:33.938Z,19.98
2023-01-11T18:06:40.809Z,21.92
2023-01-11T18:08:49.068Z,21.80
2023-01-11T18:10:56.085Z,21.67
2023-01-11T18:13:01.041Z,19.50
2023-01-11T18:15:07.770Z,22.25
2023-01-11T18:17:31.374Z,21.38
2023-01-11T18:19:36.583Z,26.00
2023-01-11T18:21:42.710Z,21.60
2023-01-11T18:23:45.817Z,32.53
2023-01-11T18:25:48.942Z,23.80
2023-01-11T18:27:52.946Z,20.88
2023-01-11T18:29:57.779Z,27.20
2023-01-11T18:32:02.275Z,20.42
2023-01-11T18:34:05.895Z,25.52
2023-01-11T18:36:20.533Z,21.95
2023-01-11T18:38:25.720Z,24.23
2023-01-11T18:40:30.926Z,25.63
2023-01-11T18:42:34.089Z,30.60
2023-01-11T18:44:38.028Z,23.88
2023-01-11T18:46:41.243Z,26.23
2023-01-11T18:48:45.712Z,23.95
2023-01-11T18:50:51.984Z,23.52
2023-01-11T18:52:55.091Z,27.40
2023-01-11T18:54:58.765Z,22.80
2023-01-11T18:57:01.886Z,16.88
2023-01-11T18:59:05.011Z,20.80
2023-01-11T19:01:09.036Z,22.98
2023-01-11T19:05:19.685Z,24.63
2023-01-11T19:07:24.047Z,20.17
2023-01-11T19:09:27.148Z,23.35
2023-01-11T19:11:30.990Z,25.02
2023-01-11T19:13:34.054Z,29.85
2023-01-11T19:15:37.442Z,22.85
2023-01-11T19:17:40.583Z,24.70
2023-01-11T19:19:43.695Z,24.90
2023-01-11T19:21:48.143Z,19.55
2023-01-11T19:23:51.311Z,21.35
2023-01-11T19:25:57.501Z,17.20
2023-01-11T19:28:00.688Z,28.45
2023-01-11T19:30:03.953Z,20.75
2023-01-11T19:32:07.180Z,28.00
2023-01-11T19:34:10.306Z,19.05
2023-01-11T19:36:13.401Z,23.52
2023-01-11T19:38:18.469Z,24.65
2023-01-11T19:40:21.629Z,17.23
2023-01-11T19:42:24.789Z,22.30
2023-01-11T19:44:31.237Z,17.27
2023-01-11T19:46:34.461Z,27.52
2023-01-11T19:48:37.742Z,26.05
2023-01-11T19:50:41.245Z,21.83
2023-01-11T19:52:45.102Z,22.38
2023-01-11T19:54:49.675Z,23.58
2023-01-11T19:56:53.526Z,28.10
2023-01-11T19:58:56.788Z,28.42
2023-01-11T20:01:00.429Z,24.38
2023-01-11T20:03:06.277Z,20.65
2023-01-11T20:05:10.040Z,27.52
2023-01-11T20:07:14.627Z,21.90
2023-01-11T20:09:18.684Z,26.55
2023-01-11T20:11:23.566Z,28.58
2023-01-11T20:13:26.709Z,14.85
2023-01-11T20:15:30.089Z,25.75
2023-01-11T20:17:33.654Z,29.60
2023-01-11T20:19:37.091Z,20.63
2023-01-11T20:21:40.284Z,19.05
2023-01-11T20:23:43.572Z,23.50
2023-01-11T20:25:47.022Z,22.95
2023-01-11T20:27:51.616Z,18.75
2023-01-11T20:29:54.823Z,21.73
2023-01-11T20:32:13.398Z,22.50
2023-01-11T20:34:21.508Z,26.25
2023-01-11T20:36:26.233Z,28.40
2023-01-11T20:38:29.531Z,18.23
2023-01-11T20:40:33.017Z,24.45
2023-01-11T20:42:36.169Z,22.30
2023-01-11T20:44:41.348Z,22.05
2023-01-11T20:46:47.676Z,21.73
2023-01-11T20:48:51.260Z,22.88
2023-01-11T20:50:54.497Z,23.77
2023-01-11T20:52:59.537Z,26.10
2023-01-11T20:55:02.715Z,18.50
2023-01-11T20:57:12.153Z,22.15
2023-01-11T20:59:18.553Z,20.63
2023-01-11T21:01:25.136Z,26.65
2023-01-11T21:03:28.311Z,22.25
2023-01-11T21:05:31.462Z,18.98
2023-01-11T21:07:34.756Z,25.60
2023-01-11T21:09:37.997Z,19.70
2023-01-11T21:11:41.989Z,34.13
2023-01-11T21:13:45.210Z,21.98
2023-01-11T21:15:49.273Z,25.83
2023-01-11T21:17:53.758Z,20.17
2023-01-11T21:19:57.354Z,23.20
2023-01-11T21:22:00.441Z,25.52
2023-01-11T21:24:05.159Z,19.17
2023-01-11T21:26:12.736Z,18.63
2023-01-11T21:28:15.803Z,18.35
2023-01-11T21:30:19.394Z,23.85
2023-01-11T21:32:22.742Z,25.20
2023-01-11T21:34:27.463Z,23.70
2023-01-11T21:36:32.125Z,20.27
2023-01-11T21:38:35.711Z,25.77
2023-01-11T21:40:38.763Z,22.15
2023-01-11T21:42:42.082Z,23.50
2023-01-11T21:44:45.392Z,20.95
2023-01-11T21:46:49.720Z,20.15
2023-01-11T21:48:52.786Z,19.75
2023-01-11T21:50:57.228Z,23.52
2023-01-11T21:53:00.257Z,22.75
2023-01-11T21:55:03.443Z,20.65
2023-01-11T21:57:06.502Z,21.52
2023-01-11T21:59:09.674Z,30.17
2023-01-11T22:01:14.204Z,24.38
2023-01-11T22:03:17.282Z,20.25
2023-01-11T22:05:20.358Z,26.40
2023-01-11T22:07:25.961Z,26.88
2023-01-11T22:09:29.130Z,17.33
2023-01-11T22:11:33.192Z,22.90
2023-01-11T22:13:36.935Z,27.38
2023-01-11T22:15:39.993Z,19.13
2023-01-11T22:17:43.185Z,21.83
2023-01-11T22:19:46.265Z,22.23
2023-01-11T22:21:49.430Z,16.70
2023-01-11T22:23:56.610Z,21.00
2023-01-11T22:26:04.240Z,17.85
2023-01-11T22:28:07.329Z,20.52
2023-01-11T22:30:11.646Z,18.17
2023-01-11T22:32:15.059Z,24.05
2023-01-11T22:34:19.467Z,23.58
2023-01-11T22:36:24.192Z,20.27
2023-01-11T22:38:27.245Z,24.33
2023-01-11T22:40:31.705Z,23.85
2023-01-11T22:42:34.825Z,21.35
2023-01-11T22:44:37.934Z,19.45
2023-01-11T22:46:41.138Z,13.23
2023-01-11T22:48:44.401Z,17.25
2023-01-11T22:50:47.526Z,26.30
2023-01-11T22:52:50.572Z,19.08
2023-01-11T22:54:53.681Z,20.00
2023-01-11T22:56:58.544Z,18.77
2023-01-11T22:59:01.885Z,18.52
2023-01-11T23:01:12.219Z,18.77
2023-01-11T23:03:16.496Z,21.35
2023-01-11T23:05:19.747Z,18.67
2023-01-11T23:07:22.852Z,16.95
2023-01-11T23:09:25.969Z,17.15
2023-01-11T23:11:47.909Z,22.08
2023-01-11T23:13:58.928Z,24.60
2023-01-11T23:16:02.062Z,18.25
2023-01-11T23:18:05.958Z,18.63
2023-01-11T23:20:10.723Z,20.85
2023-01-11T23:22:16.780Z,15.07
2023-01-11T23:24:20.079Z,16.38
2023-01-11T23:26:23.297Z,20.13
2023-01-11T23:28:29.787Z,16.55
2023-01-11T23:30:34.234Z,20.73
2023-01-11T23:32:37.339Z,15.20
2023-01-11T23:34:40.393Z,14.95
2023-01-11T23:36:44.393Z,16.75
2023-01-11T23:38:47.603Z,17.15
2023-01-11T23:41:08.511Z,17.10
2023-01-11T23:43:11.600Z,14.55
2023-01-11T23:45:14.763Z,15.77
2023-01-11T23:47:21.295Z,18.98
2023-01-11T23:49:24.834Z,18.20
2023-01-11T23:51:27.895Z,15.98
2023-01-11T23:53:30.958Z,17.35
2023-01-11T23:55:34.094Z,16.88
2023-01-11T23:57:37.187Z,15.35
2023-01-11T23:59:40.578Z,18.27
